sensor_id;sensor_type;location;lat;lon;timestamp;P1;durP1;ratioP1;P2;durP2;ratioP2
27357;SDS011;14831;50.474;7.616;2022-07-17T00:04:53;0.6;;;0.6;;
27357;SDS011;14831;50.474;7.616;2022-07-17T00:09:53;0.6;;;0.6;;
27357;SDS011;14831;50.474;7.616;2022-07-17T00:14:53;0.6;;;0.6;;
27357;SDS011;14831;50.474;7.616;2022-07-17T00:19:53;0.8;;;0.8;;
27357;SDS011;14831;50.474;7.616;2022-07-17T00:24:53;0.8;;;0.8;;
27357;SDS011;14831;50.474;7.616;2022-07-17T00:29:53;0.8;;;0.8;;
27357;SDS011;14831;50.474;7.616;2022-07-17T00:34:53;0.8;;;0.8;;
27357;SDS011;14831;50.474;7.616;2022-07-17T00:39:53;0.8;;;0.8;;
27357;SDS011;14831;50.474;7.616;2022-07-17T00:44:53;0.8;;;0.8;;
27357;SDS011;14831;50.474;7.616;2022-07-17T00:49:53;0.6;;;0.6;;
27357;SDS011;14831;50.474;7.616;2022-07-17T00:54:55;0.6;;;0.6;;
27357;SDS011;14831;50.474;7.616;2022-07-17T00:59:53;0.6;;;0.6;;
27357;SDS011;14831;50.474;7.616;2022-07-17T01:04:54;0.6;;;0.6;;
27357;SDS011;14831;50.474;7.616;2022-07-17T01:09:53;0.6;;;0.6;;
27357;SDS011;14831;50.474;7.616;2022-07-17T01:14:55;0.6;;;0.6;;
27357;SDS011;14831;50.474;7.616;2022-07-17T01:19:53;1.0;;;0.9;;
27357;SDS011;14831;50.474;7.616;2022-07-17T01:24:53;1.0;;;0.9;;
27357;SDS011;14831;50.474;7.616;2022-07-17T01:29:56;1.0;;;0.9;;
27357;SDS011;14831;50.474;7.616;2022-07-17T01:34:53;1.0;;;0.9;;
27357;SDS011;14831;50.474;7.616;2022-07-17T01:39:53;1.0;;;0.9;;
27357;SDS011;14831;50.474;7.616;2022-07-17T01:44:54;1.0;;;0.9;;
27357;SDS011;14831;50.474;7.616;2022-07-17T01:49:56;0.6;;;0.6;;
27357;SDS011;14831;50.474;7.616;2022-07-17T01:54:54;0.6;;;0.6;;
27357;SDS011;14831;50.474;7.616;2022-07-17T01:59:53;0.6;;;0.6;;
27357;SDS011;14831;50.474;7.616;2022-07-17T02:04:53;0.6;;;0.6;;
27357;SDS011;14831;50.474;7.616;2022-07-17T02:09:53;0.6;;;0.6;;
27357;SDS011;14831;50.474;7.616;2022-07-17T02:14:53;0.6;;;0.6;;
27357;SDS011;14831;50.474;7.616;2022-07-17T02:19:53;0.6;;;0.6;;
27357;SDS011;14831;50.474;7.616;2022-07-17T02:24:53;0.6;;;0.6;;
27357;SDS011;14831;50.474;7.616;2022-07-17T02:29:55;0.6;;;0.6;;
27357;SDS011;14831;50.474;7.616;2022-07-17T02:34:53;0.6;;;0.6;;
27357;SDS011;14831;50.474;7.616;2022-07-17T02:39:53;0.6;;;0.6;;
27357;SDS011;14831;50.474;7.616;2022-07-17T02:44:54;0.6;;;0.6;;
27357;SDS011;14831;50.474;7.616;2022-07-17T02:49:53;0.7;;;0.7;;
27357;SDS011;14831;50.474;7.616;2022-07-17T02:54:53;0.7;;;0.7;;
27357;SDS011;14831;50.474;7.616;2022-07-17T02:59:54;0.7;;;0.7;;
27357;SDS011;14831;50.474;7.616;2022-07-17T03:04:53;0.7;;;0.7;;
27357;SDS011;14831;50.474;7.616;2022-07-17T03:09:53;0.7;;;0.7;;
27357;SDS011;14831;50.474;7.616;2022-07-17T03:14:53;0.7;;;0.7;;
27357;SDS011;14831;50.474;7.616;2022-07-17T03:19:53;0.6;;;0.6;;
27357;SDS011;14831;50.474;7.616;2022-07-17T03:24:53;0.6;;;0.6;;
27357;SDS011;14831;50.474;7.616;2022-07-17T03:29:53;0.6;;;0.6;;
27357;SDS011;14831;50.474;7.616;2022-07-17T03:34:53;0.6;;;0.6;;
27357;SDS011;14831;50.474;7.616;2022-07-17T03:39:53;0.6;;;0.6;;
27357;SDS011;14831;50.474;7.616;2022-07-17T03:44:53;0.6;;;0.6;;
27357;SDS011;14831;50.474;7.616;2022-07-17T03:49:53;0.6;;;0.6;;
27357;SDS011;14831;50.474;7.616;2022-07-17T03:54:53;0.6;;;0.6;;
27357;SDS011;14831;50.474;7.616;2022-07-17T03:59:53;0.6;;;0.6;;
27357;SDS011;14831;50.474;7.616;2022-07-17T04:04:53;0.6;;;0.6;;
27357;SDS011;14831;50.474;7.616;2022-07-17T04:09:55;0.6;;;0.6;;
27357;SDS011;14831;50.474;7.616;2022-07-17T04:14:54;0.6;;;0.6;;
27357;SDS011;14831;50.474;7.616;2022-07-17T04:19:54;0.6;;;0.6;;
27357;SDS011;14831;50.474;7.616;2022-07-17T04:24:53;0.6;;;0.6;;
27357;SDS011;14831;50.474;7.616;2022-07-17T04:29:53;0.6;;;0.6;;
27357;SDS011;14831;50.474;7.616;2022-07-17T04:34:53;0.6;;;0.6;;
27357;SDS011;14831;50.474;7.616;2022-07-17T04:39:53;0.6;;;0.6;;
27357;SDS011;14831;50.474;7.616;2022-07-17T04:44:53;0.6;;;0.6;;
27357;SDS011;14831;50.474;7.616;2022-07-17T04:49:54;0.6;;;0.6;;
27357;SDS011;14831;50.474;7.616;2022-07-17T04:54:53;0.6;;;0.6;;
27357;SDS011;14831;50.474;7.616;2022-07-17T04:59:53;0.6;;;0.6;;
27357;SDS011;14831;50.474;7.616;2022-07-17T05:04:53;0.6;;;0.6;;
27357;SDS011;14831;50.474;7.616;2022-07-17T05:09:53;0.6;;;0.6;;
27357;SDS011;14831;50.474;7.616;2022-07-17T05:14:53;0.6;;;0.6;;
27357;SDS011;14831;50.474;7.616;2022-07-17T05:19:53;0.6;;;0.6;;
27357;SDS011;14831;50.474;7.616;2022-07-17T05:24:53;0.6;;;0.6;;
27357;SDS011;14831;50.474;7.616;2022-07-17T05:29:53;0.6;;;0.6;;
27357;SDS011;14831;50.474;7.616;2022-07-17T05:34:53;0.6;;;0.6;;
27357;SDS011;14831;50.474;7.616;2022-07-17T05:39:53;0.6;;;0.6;;
27357;SDS011;14831;50.474;7.616;2022-07-17T05:44:53;0.6;;;0.6;;
27357;SDS011;14831;50.474;7.616;2022-07-17T05:49:53;0.7;;;0.7;;
27357;SDS011;14831;50.474;7.616;2022-07-17T05:54:53;0.7;;;0.7;;
27357;SDS011;14831;50.474;7.616;2022-07-17T05:59:53;0.7;;;0.7;;
27357;SDS011;14831;50.474;7.616;2022-07-17T06:04:53;0.7;;;0.7;;
27357;SDS011;14831;50.474;7.616;2022-07-17T06:09:53;0.7;;;0.7;;
27357;SDS011;14831;50.474;7.616;2022-07-17T06:14:53;0.7;;;0.7;;
27357;SDS011;14831;50.474;7.616;2022-07-17T06:19:53;0.5;;;0.5;;
27357;SDS011;14831;50.474;7.616;2022-07-17T06:24:53;0.5;;;0.5;;
27357;SDS011;14831;50.474;7.616;2022-07-17T06:29:53;0.5;;;0.5;;
27357;SDS011;14831;50.474;7.616;2022-07-17T06:34:53;0.5;;;0.5;;
27357;SDS011;14831;50.474;7.616;2022-07-17T06:39:53;0.5;;;0.5;;
27357;SDS011;14831;50.474;7.616;2022-07-17T06:44:53;0.5;;;0.5;;
27357;SDS011;14831;50.474;7.616;2022-07-17T06:49:53;0.5;;;0.5;;
27357;SDS011;14831;50.474;7.616;2022-07-17T06:54:53;0.5;;;0.5;;
27357;SDS011;14831;50.474;7.616;2022-07-17T06:59:53;0.5;;;0.5;;
27357;SDS011;14831;50.474;7.616;2022-07-17T07:04:53;0.5;;;0.5;;
27357;SDS011;14831;50.474;7.616;2022-07-17T07:09:54;0.5;;;0.5;;
27357;SDS011;14831;50.474;7.616;2022-07-17T07:14:53;0.5;;;0.5;;
27357;SDS011;14831;50.474;7.616;2022-07-17T07:19:53;0.8;;;0.8;;
27357;SDS011;14831;50.474;7.616;2022-07-17T07:24:53;0.8;;;0.8;;
27357;SDS011;14831;50.474;7.616;2022-07-17T07:29:53;0.8;;;0.8;;
27357;SDS011;14831;50.474;7.616;2022-07-17T07:34:53;0.8;;;0.8;;
27357;SDS011;14831;50.474;7.616;2022-07-17T07:39:53;0.8;;;0.8;;
27357;SDS011;14831;50.474;7.616;2022-07-17T07:44:53;0.8;;;0.8;;
27357;SDS011;14831;50.474;7.616;2022-07-17T07:49:53;3.0;;;1.9;;
27357;SDS011;14831;50.474;7.616;2022-07-17T07:54:53;3.0;;;1.9;;
27357;SDS011;14831;50.474;7.616;2022-07-17T07:59:53;3.0;;;1.9;;
27357;SDS011;14831;50.474;7.616;2022-07-17T08:04:53;3.0;;;1.9;;
27357;SDS011;14831;50.474;7.616;2022-07-17T08:09:54;3.0;;;1.9;;
27357;SDS011;14831;50.474;7.616;2022-07-17T08:14:53;3.0;;;1.9;;
27357;SDS011;14831;50.474;7.616;2022-07-17T08:19:53;3.1;;;1.9;;
27357;SDS011;14831;50.474;7.616;2022-07-17T08:24:53;3.1;;;1.9;;
27357;SDS011;14831;50.474;7.616;2022-07-17T08:29:53;3.1;;;1.9;;
27357;SDS011;14831;50.474;7.616;2022-07-17T08:34:53;3.1;;;1.9;;
27357;SDS011;14831;50.474;7.616;2022-07-17T08:39:53;3.1;;;1.9;;
27357;SDS011;14831;50.474;7.616;2022-07-17T08:44:53;3.1;;;1.9;;
27357;SDS011;14831;50.474;7.616;2022-07-17T08:49:53;4.3;;;1.7;;
27357;SDS011;14831;50.474;7.616;2022-07-17T08:54:53;4.3;;;1.7;;
27357;SDS011;14831;50.474;7.616;2022-07-17T08:59:53;4.3;;;1.7;;
27357;SDS011;14831;50.474;7.616;2022-07-17T09:04:54;4.3;;;1.7;;
27357;SDS011;14831;50.474;7.616;2022-07-17T09:09:53;4.3;;;1.7;;
27357;SDS011;14831;50.474;7.616;2022-07-17T09:14:54;4.3;;;1.7;;
27357;SDS011;14831;50.474;7.616;2022-07-17T09:19:53;3.5;;;1.5;;
27357;SDS011;14831;50.474;7.616;2022-07-17T09:24:55;3.5;;;1.5;;
27357;SDS011;14831;50.474;7.616;2022-07-17T09:29:55;3.5;;;1.5;;
27357;SDS011;14831;50.474;7.616;2022-07-17T09:34:56;3.5;;;1.5;;
27357;SDS011;14831;50.474;7.616;2022-07-17T09:39:53;3.5;;;1.5;;
27357;SDS011;14831;50.474;7.616;2022-07-17T09:44:56;3.5;;;1.5;;
27357;SDS011;14831;50.474;7.616;2022-07-17T09:49:55;2.2;;;1.2;;
27357;SDS011;14831;50.474;7.616;2022-07-17T09:54:54;2.2;;;1.2;;
27357;SDS011;14831;50.474;7.616;2022-07-17T09:59:55;2.2;;;1.2;;
27357;SDS011;14831;50.474;7.616;2022-07-17T10:04:53;2.2;;;1.2;;
27357;SDS011;14831;50.474;7.616;2022-07-17T10:09:53;2.2;;;1.2;;
27357;SDS011;14831;50.474;7.616;2022-07-17T10:14:53;2.2;;;1.2;;
27357;SDS011;14831;50.474;7.616;2022-07-17T10:19:54;3.9;;;1.5;;
27357;SDS011;14831;50.474;7.616;2022-07-17T10:24:55;3.9;;;1.5;;
27357;SDS011;14831;50.474;7.616;2022-07-17T10:30:03;3.9;;;1.5;;
27357;SDS011;14831;50.474;7.616;2022-07-17T10:34:58;3.9;;;1.5;;
27357;SDS011;14831;50.474;7.616;2022-07-17T10:39:55;3.9;;;1.5;;
27357;SDS011;14831;50.474;7.616;2022-07-17T10:44:53;3.9;;;1.5;;
27357;SDS011;14831;50.474;7.616;2022-07-17T10:49:54;3.9;;;1.3;;
27357;SDS011;14831;50.474;7.616;2022-07-17T10:54:53;3.9;;;1.3;;
27357;SDS011;14831;50.474;7.616;2022-07-17T10:59:53;3.9;;;1.3;;
27357;SDS011;14831;50.474;7.616;2022-07-17T11:04:53;3.9;;;1.3;;
27357;SDS011;14831;50.474;7.616;2022-07-17T11:09:53;3.9;;;1.3;;
27357;SDS011;14831;50.474;7.616;2022-07-17T11:14:59;3.9;;;1.3;;
27357;SDS011;14831;50.474;7.616;2022-07-17T11:19:53;1.9;;;0.9;;
27357;SDS011;14831;50.474;7.616;2022-07-17T11:24:53;1.9;;;0.9;;
27357;SDS011;14831;50.474;7.616;2022-07-17T11:29:55;1.9;;;0.9;;
27357;SDS011;14831;50.474;7.616;2022-07-17T11:34:53;1.9;;;0.9;;
27357;SDS011;14831;50.474;7.616;2022-07-17T11:39:53;1.9;;;0.9;;
27357;SDS011;14831;50.474;7.616;2022-07-17T11:44:55;1.9;;;0.9;;
27357;SDS011;14831;50.474;7.616;2022-07-17T11:50:04;2.5;;;1.3;;
27357;SDS011;14831;50.474;7.616;2022-07-17T11:54:55;2.5;;;1.3;;
27357;SDS011;14831;50.474;7.616;2022-07-17T11:59:53;2.5;;;1.3;;
27357;SDS011;14831;50.474;7.616;2022-07-17T12:04:55;2.5;;;1.3;;
27357;SDS011;14831;50.474;7.616;2022-07-17T12:09:54;2.5;;;1.3;;
27357;SDS011;14831;50.474;7.616;2022-07-17T12:14:56;2.5;;;1.3;;
27357;SDS011;14831;50.474;7.616;2022-07-17T12:20:01;1.7;;;1.1;;
27357;SDS011;14831;50.474;7.616;2022-07-17T12:24:53;1.7;;;1.1;;
27357;SDS011;14831;50.474;7.616;2022-07-17T12:29:53;1.7;;;1.1;;
27357;SDS011;14831;50.474;7.616;2022-07-17T12:34:53;1.7;;;1.1;;
27357;SDS011;14831;50.474;7.616;2022-07-17T12:39:53;1.7;;;1.1;;
27357;SDS011;14831;50.474;7.616;2022-07-17T12:44:53;1.7;;;1.1;;
27357;SDS011;14831;50.474;7.616;2022-07-17T12:49:54;2.6;;;1.3;;
27357;SDS011;14831;50.474;7.616;2022-07-17T12:54:53;2.6;;;1.3;;
27357;SDS011;14831;50.474;7.616;2022-07-17T12:59:53;2.6;;;1.3;;
27357;SDS011;14831;50.474;7.616;2022-07-17T13:04:53;2.6;;;1.3;;
27357;SDS011;14831;50.474;7.616;2022-07-17T13:09:53;2.6;;;1.3;;
27357;SDS011;14831;50.474;7.616;2022-07-17T13:14:53;2.6;;;1.3;;
27357;SDS011;14831;50.474;7.616;2022-07-17T13:19:53;4.3;;;1.3;;
27357;SDS011;14831;50.474;7.616;2022-07-17T13:24:53;4.3;;;1.3;;
27357;SDS011;14831;50.474;7.616;2022-07-17T13:29:53;4.3;;;1.3;;
27357;SDS011;14831;50.474;7.616;2022-07-17T13:34:53;4.3;;;1.3;;
27357;SDS011;14831;50.474;7.616;2022-07-17T13:39:53;4.3;;;1.3;;
27357;SDS011;14831;50.474;7.616;2022-07-17T13:44:53;4.3;;;1.3;;
27357;SDS011;14831;50.474;7.616;2022-07-17T13:49:53;3.4;;;1.3;;
27357;SDS011;14831;50.474;7.616;2022-07-17T13:54:53;3.4;;;1.3;;
27357;SDS011;14831;50.474;7.616;2022-07-17T13:59:53;3.4;;;1.3;;
27357;SDS011;14831;50.474;7.616;2022-07-17T14:04:53;3.4;;;1.3;;
27357;SDS011;14831;50.474;7.616;2022-07-17T14:09:53;3.4;;;1.3;;
27357;SDS011;14831;50.474;7.616;2022-07-17T14:14:53;3.4;;;1.3;;
27357;SDS011;14831;50.474;7.616;2022-07-17T14:19:53;2.4;;;0.9;;
27357;SDS011;14831;50.474;7.616;2022-07-17T14:24:53;2.4;;;0.9;;
27357;SDS011;14831;50.474;7.616;2022-07-17T14:29:53;2.4;;;0.9;;
27357;SDS011;14831;50.474;7.616;2022-07-17T14:34:53;2.4;;;0.9;;
27357;SDS011;14831;50.474;7.616;2022-07-17T14:39:53;2.4;;;0.9;;
27357;SDS011;14831;50.474;7.616;2022-07-17T14:44:53;2.4;;;0.9;;
27357;SDS011;14831;50.474;7.616;2022-07-17T14:49:54;1.2;;;1.0;;
27357;SDS011;14831;50.474;7.616;2022-07-17T14:54:53;1.2;;;1.0;;
27357;SDS011;14831;50.474;7.616;2022-07-17T14:59:53;1.2;;;1.0;;
27357;SDS011;14831;50.474;7.616;2022-07-17T15:04:53;1.2;;;1.0;;
27357;SDS011;14831;50.474;7.616;2022-07-17T15:09:53;1.2;;;1.0;;
27357;SDS011;14831;50.474;7.616;2022-07-17T15:14:53;1.2;;;1.0;;
27357;SDS011;14831;50.474;7.616;2022-07-17T15:19:53;1.5;;;0.9;;
27357;SDS011;14831;50.474;7.616;2022-07-17T15:24:53;1.5;;;0.9;;
27357;SDS011;14831;50.474;7.616;2022-07-17T15:29:53;1.5;;;0.9;;
27357;SDS011;14831;50.474;7.616;2022-07-17T15:34:53;1.5;;;0.9;;
27357;SDS011;14831;50.474;7.616;2022-07-17T15:39:53;1.5;;;0.9;;
27357;SDS011;14831;50.474;7.616;2022-07-17T15:44:53;1.5;;;0.9;;
27357;SDS011;14831;50.474;7.616;2022-07-17T15:49:53;2.2;;;0.8;;
27357;SDS011;14831;50.474;7.616;2022-07-17T15:54:53;2.2;;;0.8;;
27357;SDS011;14831;50.474;7.616;2022-07-17T15:59:54;2.2;;;0.8;;
27357;SDS011;14831;50.474;7.616;2022-07-17T16:04:53;2.2;;;0.8;;
27357;SDS011;14831;50.474;7.616;2022-07-17T16:09:53;2.2;;;0.8;;
27357;SDS011;14831;50.474;7.616;2022-07-17T16:14:53;2.2;;;0.8;;
27357;SDS011;14831;50.474;7.616;2022-07-17T16:19:54;2.0;;;1.5;;
27357;SDS011;14831;50.474;7.616;2022-07-17T16:24:53;2.0;;;1.5;;
27357;SDS011;14831;50.474;7.616;2022-07-17T16:29:53;2.0;;;1.5;;
27357;SDS011;14831;50.474;7.616;2022-07-17T16:34:53;2.0;;;1.5;;
27357;SDS011;14831;50.474;7.616;2022-07-17T16:39:53;2.0;;;1.5;;
27357;SDS011;14831;50.474;7.616;2022-07-17T16:44:53;2.0;;;1.5;;
27357;SDS011;14831;50.474;7.616;2022-07-17T16:49:53;1.6;;;1.3;;
27357;SDS011;14831;50.474;7.616;2022-07-17T16:54:53;1.6;;;1.3;;
27357;SDS011;14831;50.474;7.616;2022-07-17T16:59:53;1.6;;;1.3;;
27357;SDS011;14831;50.474;7.616;2022-07-17T17:04:53;1.6;;;1.3;;
27357;SDS011;14831;50.474;7.616;2022-07-17T17:09:53;1.6;;;1.3;;
27357;SDS011;14831;50.474;7.616;2022-07-17T17:14:53;1.6;;;1.3;;
27357;SDS011;14831;50.474;7.616;2022-07-17T17:19:53;2.6;;;1.0;;
27357;SDS011;14831;50.474;7.616;2022-07-17T17:24:53;2.6;;;1.0;;
27357;SDS011;14831;50.474;7.616;2022-07-17T17:29:53;2.6;;;1.0;;
27357;SDS011;14831;50.474;7.616;2022-07-17T17:34:53;2.6;;;1.0;;
27357;SDS011;14831;50.474;7.616;2022-07-17T17:39:53;2.6;;;1.0;;
27357;SDS011;14831;50.474;7.616;2022-07-17T17:44:53;2.6;;;1.0;;
27357;SDS011;14831;50.474;7.616;2022-07-17T17:49:53;2.0;;;1.0;;
27357;SDS011;14831;50.474;7.616;2022-07-17T17:54:53;2.0;;;1.0;;
27357;SDS011;14831;50.474;7.616;2022-07-17T17:59:53;2.0;;;1.0;;
27357;SDS011;14831;50.474;7.616;2022-07-17T18:04:53;2.0;;;1.0;;
27357;SDS011;14831;50.474;7.616;2022-07-17T18:09:53;2.0;;;1.0;;
27357;SDS011;14831;50.474;7.616;2022-07-17T18:14:53;2.0;;;1.0;;
27357;SDS011;14831;50.474;7.616;2022-07-17T18:19:53;1.3;;;0.9;;
27357;SDS011;14831;50.474;7.616;2022-07-17T18:24:53;1.3;;;0.9;;
27357;SDS011;14831;50.474;7.616;2022-07-17T18:29:53;1.3;;;0.9;;
27357;SDS011;14831;50.474;7.616;2022-07-17T18:34:53;1.3;;;0.9;;
27357;SDS011;14831;50.474;7.616;2022-07-17T18:39:53;1.3;;;0.9;;
27357;SDS011;14831;50.474;7.616;2022-07-17T18:44:53;1.3;;;0.9;;
27357;SDS011;14831;50.474;7.616;2022-07-17T18:49:53;1.2;;;1.0;;
27357;SDS011;14831;50.474;7.616;2022-07-17T18:54:53;1.2;;;1.0;;
27357;SDS011;14831;50.474;7.616;2022-07-17T18:59:54;1.2;;;1.0;;
27357;SDS011;14831;50.474;7.616;2022-07-17T19:04:53;1.2;;;1.0;;
27357;SDS011;14831;50.474;7.616;2022-07-17T19:09:53;1.2;;;1.0;;
27357;SDS011;14831;50.474;7.616;2022-07-17T19:14:53;1.2;;;1.0;;
27357;SDS011;14831;50.474;7.616;2022-07-17T19:19:53;1.4;;;1.2;;
27357;SDS011;14831;50.474;7.616;2022-07-17T19:24:53;1.4;;;1.2;;
27357;SDS011;14831;50.474;7.616;2022-07-17T19:29:54;1.4;;;1.2;;
27357;SDS011;14831;50.474;7.616;2022-07-17T19:34:53;1.4;;;1.2;;
27357;SDS011;14831;50.474;7.616;2022-07-17T19:39:53;1.4;;;1.2;;
27357;SDS011;14831;50.474;7.616;2022-07-17T19:44:53;1.4;;;1.2;;
27357;SDS011;14831;50.474;7.616;2022-07-17T19:49:53;1.4;;;1.0;;
27357;SDS011;14831;50.474;7.616;2022-07-17T19:54:53;1.4;;;1.0;;
27357;SDS011;14831;50.474;7.616;2022-07-17T19:59:53;1.4;;;1.0;;
27357;SDS011;14831;50.474;7.616;2022-07-17T20:04:53;1.4;;;1.0;;
27357;SDS011;14831;50.474;7.616;2022-07-17T20:09:53;1.4;;;1.0;;
27357;SDS011;14831;50.474;7.616;2022-07-17T20:14:53;1.4;;;1.0;;
27357;SDS011;14831;50.474;7.616;2022-07-17T20:19:53;1.7;;;1.1;;
27357;SDS011;14831;50.474;7.616;2022-07-17T20:24:53;1.7;;;1.1;;
27357;SDS011;14831;50.474;7.616;2022-07-17T20:29:53;1.7;;;1.1;;
27357;SDS011;14831;50.474;7.616;2022-07-17T20:34:54;1.7;;;1.1;;
27357;SDS011;14831;50.474;7.616;2022-07-17T20:39:53;1.7;;;1.1;;
27357;SDS011;14831;50.474;7.616;2022-07-17T20:44:53;1.7;;;1.1;;
27357;SDS011;14831;50.474;7.616;2022-07-17T20:49:53;2.1;;;1.1;;
27357;SDS011;14831;50.474;7.616;2022-07-17T20:54:53;2.1;;;1.1;;
27357;SDS011;14831;50.474;7.616;2022-07-17T20:59:53;2.1;;;1.1;;
27357;SDS011;14831;50.474;7.616;2022-07-17T21:04:53;2.1;;;1.1;;
27357;SDS011;14831;50.474;7.616;2022-07-17T21:09:53;2.1;;;1.1;;
27357;SDS011;14831;50.474;7.616;2022-07-17T21:14:53;2.1;;;1.1;;
27357;SDS011;14831;50.474;7.616;2022-07-17T21:19:53;1.1;;;1.0;;
27357;SDS011;14831;50.474;7.616;2022-07-17T21:24:53;1.1;;;1.0;;
27357;SDS011;14831;50.474;7.616;2022-07-17T21:29:53;1.1;;;1.0;;
27357;SDS011;14831;50.474;7.616;2022-07-17T21:34:53;1.1;;;1.0;;
27357;SDS011;14831;50.474;7.616;2022-07-17T21:39:53;1.1;;;1.0;;
27357;SDS011;14831;50.474;7.616;2022-07-17T21:44:53;1.1;;;1.0;;
27357;SDS011;14831;50.474;7.616;2022-07-17T21:49:53;1.8;;;1.2;;
27357;SDS011;14831;50.474;7.616;2022-07-17T21:54:53;1.8;;;1.2;;
27357;SDS011;14831;50.474;7.616;2022-07-17T21:59:54;1.8;;;1.2;;
27357;SDS011;14831;50.474;7.616;2022-07-17T22:04:54;1.8;;;1.2;;
27357;SDS011;14831;50.474;7.616;2022-07-17T22:09:54;1.8;;;1.2;;
27357;SDS011;14831;50.474;7.616;2022-07-17T22:14:54;1.8;;;1.2;;
27357;SDS011;14831;50.474;7.616;2022-07-17T22:19:54;1.4;;;1.3;;
27357;SDS011;14831;50.474;7.616;2022-07-17T22:24:54;1.4;;;1.3;;
27357;SDS011;14831;50.474;7.616;2022-07-17T22:29:54;1.4;;;1.3;;
27357;SDS011;14831;50.474;7.616;2022-07-17T22:34:53;1.4;;;1.3;;
27357;SDS011;14831;50.474;7.616;2022-07-17T22:39:53;1.4;;;1.3;;
27357;SDS011;14831;50.474;7.616;2022-07-17T22:44:53;1.4;;;1.3;;
27357;SDS011;14831;50.474;7.616;2022-07-17T22:49:53;1.3;;;1.2;;
27357;SDS011;14831;50.474;7.616;2022-07-17T22:54:53;1.3;;;1.2;;
27357;SDS011;14831;50.474;7.616;2022-07-17T22:59:54;1.3;;;1.2;;
27357;SDS011;14831;50.474;7.616;2022-07-17T23:04:54;1.3;;;1.2;;
27357;SDS011;14831;50.474;7.616;2022-07-17T23:09:54;1.3;;;1.2;;
27357;SDS011;14831;50.474;7.616;2022-07-17T23:14:53;1.3;;;1.2;;
27357;SDS011;14831;50.474;7.616;2022-07-17T23:19:53;2.1;;;1.4;;
27357;SDS011;14831;50.474;7.616;2022-07-17T23:24:53;2.1;;;1.4;;
27357;SDS011;14831;50.474;7.616;2022-07-17T23:29:53;2.1;;;1.4;;
27357;SDS011;14831;50.474;7.616;2022-07-17T23:34:55;2.1;;;1.4;;
27357;SDS011;14831;50.474;7.616;2022-07-17T23:39:53;2.1;;;1.4;;
27357;SDS011;14831;50.474;7.616;2022-07-17T23:44:53;2.1;;;1.4;;
27357;SDS011;14831;50.474;7.616;2022-07-17T23:49:53;2.0;;;1.5;;
27357;SDS011;14831;50.474;7.616;2022-07-17T23:54:53;2.0;;;1.5;;
27357;SDS011;14831;50.474;7.616;2022-07-17T23:59:54;2.0;;;1.5;;
